sensor_id;sensor_type;location;lat;lon;timestamp;P1;durP1;ratioP1;P2;durP2;ratioP2
16093;SDS011;8151;47.824;12.092;2023-08-24T00:00:04;6.68;;;5.88;;
16093;SDS011;8151;47.824;12.092;2023-08-24T00:02:34;7.88;;;5.47;;
16093;SDS011;8151;47.824;12.092;2023-08-24T00:05:02;7.30;;;5.63;;
16093;SDS011;8151;47.824;12.092;2023-08-24T00:07:32;6.45;;;5.68;;
16093;SDS011;8151;47.824;12.092;2023-08-24T00:10:02;6.57;;;5.47;;
16093;SDS011;8151;47.824;12.092;2023-08-24T00:12:32;8.38;;;5.75;;
16093;SDS011;8151;47.824;12.092;2023-08-24T00:15:02;14.48;;;6.20;;
16093;SDS011;8151;47.824;12.092;2023-08-24T00:17:31;6.90;;;5.75;;
16093;SDS011;8151;47.824;12.092;2023-08-24T00:20:00;9.88;;;5.90;;
16093;SDS011;8151;47.824;12.092;2023-08-24T00:22:31;8.88;;;6.10;;
16093;SDS011;8151;47.824;12.092;2023-08-24T00:24:59;7.40;;;6.00;;
16093;SDS011;8151;47.824;12.092;2023-08-24T00:27:29;10.50;;;6.10;;
16093;SDS011;8151;47.824;12.092;2023-08-24T00:29:57;10.68;;;6.25;;
16093;SDS011;8151;47.824;12.092;2023-08-24T00:32:26;7.30;;;5.50;;
16093;SDS011;8151;47.824;12.092;2023-08-24T00:34:55;7.00;;;5.55;;
16093;SDS011;8151;47.824;12.092;2023-08-24T00:37:24;10.05;;;6.38;;
16093;SDS011;8151;47.824;12.092;2023-08-24T00:39:52;9.05;;;5.80;;
16093;SDS011;8151;47.824;12.092;2023-08-24T00:42:21;6.97;;;5.88;;
16093;SDS011;8151;47.824;12.092;2023-08-24T00:44:59;7.57;;;5.80;;
16093;SDS011;8151;47.824;12.092;2023-08-24T00:47:27;9.18;;;5.80;;
16093;SDS011;8151;47.824;12.092;2023-08-24T00:49:56;10.57;;;5.93;;
16093;SDS011;8151;47.824;12.092;2023-08-24T00:52:24;8.60;;;7.00;;
16093;SDS011;8151;47.824;12.092;2023-08-24T00:54:56;8.48;;;5.85;;
16093;SDS011;8151;47.824;12.092;2023-08-24T00:57:25;9.15;;;5.78;;
16093;SDS011;8151;47.824;12.092;2023-08-24T00:59:54;7.05;;;5.63;;
16093;SDS011;8151;47.824;12.092;2023-08-24T01:02:25;12.13;;;6.28;;
16093;SDS011;8151;47.824;12.092;2023-08-24T01:04:53;9.98;;;5.90;;
16093;SDS011;8151;47.824;12.092;2023-08-24T01:07:22;7.85;;;5.90;;
16093;SDS011;8151;47.824;12.092;2023-08-24T01:09:50;9.38;;;5.88;;
16093;SDS011;8151;47.824;12.092;2023-08-24T01:12:22;11.18;;;5.75;;
16093;SDS011;8151;47.824;12.092;2023-08-24T01:14:58;6.40;;;5.63;;
16093;SDS011;8151;47.824;12.092;2023-08-24T01:17:36;8.75;;;5.80;;
16093;SDS011;8151;47.824;12.092;2023-08-24T01:20:07;11.88;;;5.80;;
16093;SDS011;8151;47.824;12.092;2023-08-24T01:22:41;7.10;;;5.88;;
16093;SDS011;8151;47.824;12.092;2023-08-24T01:25:16;9.75;;;5.50;;
16093;SDS011;8151;47.824;12.092;2023-08-24T01:27:49;6.00;;;5.35;;
16093;SDS011;8151;47.824;12.092;2023-08-24T01:30:19;6.60;;;5.88;;
16093;SDS011;8151;47.824;12.092;2023-08-24T01:32:47;7.55;;;5.95;;
16093;SDS011;8151;47.824;12.092;2023-08-24T01:35:16;6.65;;;5.70;;
16093;SDS011;8151;47.824;12.092;2023-08-24T01:37:44;7.57;;;5.20;;
16093;SDS011;8151;47.824;12.092;2023-08-24T01:40:15;7.05;;;5.55;;
16093;SDS011;8151;47.824;12.092;2023-08-24T01:42:51;6.55;;;5.32;;
16093;SDS011;8151;47.824;12.092;2023-08-24T01:45:24;10.95;;;5.68;;
16093;SDS011;8151;47.824;12.092;2023-08-24T01:47:55;5.82;;;5.40;;
16093;SDS011;8151;47.824;12.092;2023-08-24T01:50:24;6.65;;;5.80;;
16093;SDS011;8151;47.824;12.092;2023-08-24T01:52:53;7.13;;;5.63;;
16093;SDS011;8151;47.824;12.092;2023-08-24T01:55:21;8.13;;;5.68;;
16093;SDS011;8151;47.824;12.092;2023-08-24T01:57:52;6.75;;;5.07;;
16093;SDS011;8151;47.824;12.092;2023-08-24T02:00:20;5.85;;;5.30;;
16093;SDS011;8151;47.824;12.092;2023-08-24T02:02:49;6.28;;;5.47;;
16093;SDS011;8151;47.824;12.092;2023-08-24T02:05:17;13.25;;;5.82;;
16093;SDS011;8151;47.824;12.092;2023-08-24T02:07:46;6.15;;;5.38;;
16093;SDS011;8151;47.824;12.092;2023-08-24T02:10:14;6.35;;;5.53;;
16093;SDS011;8151;47.824;12.092;2023-08-24T02:12:43;7.72;;;5.78;;
16093;SDS011;8151;47.824;12.092;2023-08-24T02:15:13;7.43;;;5.85;;
16093;SDS011;8151;47.824;12.092;2023-08-24T02:17:41;6.00;;;5.30;;
16093;SDS011;8151;47.824;12.092;2023-08-24T02:20:10;6.10;;;5.15;;
16093;SDS011;8151;47.824;12.092;2023-08-24T02:22:39;8.50;;;5.78;;
16093;SDS011;8151;47.824;12.092;2023-08-24T02:25:08;5.68;;;5.18;;
16093;SDS011;8151;47.824;12.092;2023-08-24T02:27:37;8.68;;;5.78;;
16093;SDS011;8151;47.824;12.092;2023-08-24T02:30:06;8.70;;;5.70;;
16093;SDS011;8151;47.824;12.092;2023-08-24T02:32:37;6.72;;;5.60;;
16093;SDS011;8151;47.824;12.092;2023-08-24T02:35:05;6.50;;;5.38;;
16093;SDS011;8151;47.824;12.092;2023-08-24T02:37:35;8.20;;;5.95;;
16093;SDS011;8151;47.824;12.092;2023-08-24T02:40:03;6.07;;;5.30;;
16093;SDS011;8151;47.824;12.092;2023-08-24T02:42:33;6.03;;;5.43;;
16093;SDS011;8151;47.824;12.092;2023-08-24T02:45:01;6.78;;;5.28;;
16093;SDS011;8151;47.824;12.092;2023-08-24T02:47:30;6.60;;;5.60;;
16093;SDS011;8151;47.824;12.092;2023-08-24T02:50:01;5.82;;;5.22;;
16093;SDS011;8151;47.824;12.092;2023-08-24T02:52:30;7.53;;;5.25;;
16093;SDS011;8151;47.824;12.092;2023-08-24T02:54:59;7.90;;;5.47;;
16093;SDS011;8151;47.824;12.092;2023-08-24T02:57:27;5.80;;;5.20;;
16093;SDS011;8151;47.824;12.092;2023-08-24T02:59:56;7.78;;;5.70;;
16093;SDS011;8151;47.824;12.092;2023-08-24T03:02:25;7.20;;;5.40;;
16093;SDS011;8151;47.824;12.092;2023-08-24T03:04:53;8.95;;;5.88;;
16093;SDS011;8151;47.824;12.092;2023-08-24T03:07:24;7.30;;;5.85;;
16093;SDS011;8151;47.824;12.092;2023-08-24T03:09:52;8.88;;;6.20;;
16093;SDS011;8151;47.824;12.092;2023-08-24T03:12:21;7.65;;;5.57;;
16093;SDS011;8151;47.824;12.092;2023-08-24T03:14:51;10.07;;;5.80;;
16093;SDS011;8151;47.824;12.092;2023-08-24T03:17:20;9.98;;;5.50;;
16093;SDS011;8151;47.824;12.092;2023-08-24T03:19:48;6.75;;;5.60;;
16093;SDS011;8151;47.824;12.092;2023-08-24T03:22:17;8.32;;;5.55;;
16093;SDS011;8151;47.824;12.092;2023-08-24T03:24:47;6.82;;;5.88;;
16093;SDS011;8151;47.824;12.092;2023-08-24T03:27:25;6.80;;;5.78;;
16093;SDS011;8151;47.824;12.092;2023-08-24T03:29:53;7.53;;;6.25;;
16093;SDS011;8151;47.824;12.092;2023-08-24T03:32:22;9.75;;;6.35;;
16093;SDS011;8151;47.824;12.092;2023-08-24T03:34:50;9.85;;;6.80;;
16093;SDS011;8151;47.824;12.092;2023-08-24T03:37:20;10.63;;;6.35;;
16093;SDS011;8151;47.824;12.092;2023-08-24T03:39:49;10.13;;;6.35;;
16093;SDS011;8151;47.824;12.092;2023-08-24T03:42:18;9.73;;;6.32;;
16093;SDS011;8151;47.824;12.092;2023-08-24T03:44:46;7.00;;;6.27;;
16093;SDS011;8151;47.824;12.092;2023-08-24T03:47:15;7.90;;;6.07;;
16093;SDS011;8151;47.824;12.092;2023-08-24T03:49:43;9.23;;;6.07;;
16093;SDS011;8151;47.824;12.092;2023-08-24T03:52:12;9.65;;;6.05;;
16093;SDS011;8151;47.824;12.092;2023-08-24T03:54:41;7.90;;;5.70;;
16093;SDS011;8151;47.824;12.092;2023-08-24T03:57:11;7.90;;;6.35;;
16093;SDS011;8151;47.824;12.092;2023-08-24T03:59:39;12.52;;;6.70;;
16093;SDS011;8151;47.824;12.092;2023-08-24T04:02:07;8.93;;;6.30;;
16093;SDS011;8151;47.824;12.092;2023-08-24T04:04:36;9.70;;;6.53;;
16093;SDS011;8151;47.824;12.092;2023-08-24T04:07:04;9.88;;;6.60;;
16093;SDS011;8151;47.824;12.092;2023-08-24T04:09:33;11.60;;;6.63;;
16093;SDS011;8151;47.824;12.092;2023-08-24T04:12:01;6.85;;;5.75;;
16093;SDS011;8151;47.824;12.092;2023-08-24T04:14:31;10.93;;;6.10;;
16093;SDS011;8151;47.824;12.092;2023-08-24T04:16:59;10.93;;;6.30;;
16093;SDS011;8151;47.824;12.092;2023-08-24T04:19:27;8.23;;;7.00;;
16093;SDS011;8151;47.824;12.092;2023-08-24T04:21:56;10.07;;;6.50;;
16093;SDS011;8151;47.824;12.092;2023-08-24T04:24:24;9.10;;;6.37;;
16093;SDS011;8151;47.824;12.092;2023-08-24T04:26:53;8.90;;;6.30;;
16093;SDS011;8151;47.824;12.092;2023-08-24T04:29:21;9.57;;;6.20;;
16093;SDS011;8151;47.824;12.092;2023-08-24T04:31:51;7.60;;;6.37;;
16093;SDS011;8151;47.824;12.092;2023-08-24T04:34:19;8.17;;;7.37;;
16093;SDS011;8151;47.824;12.092;2023-08-24T04:36:48;10.17;;;6.53;;
16093;SDS011;8151;47.824;12.092;2023-08-24T04:39:16;7.73;;;6.23;;
16093;SDS011;8151;47.824;12.092;2023-08-24T04:41:45;8.50;;;6.20;;
16093;SDS011;8151;47.824;12.092;2023-08-24T04:44:14;7.40;;;6.17;;
16093;SDS011;8151;47.824;12.092;2023-08-24T04:46:43;6.97;;;5.90;;
16093;SDS011;8151;47.824;12.092;2023-08-24T04:49:12;7.18;;;5.82;;
16093;SDS011;8151;47.824;12.092;2023-08-24T04:51:41;6.22;;;5.72;;
16093;SDS011;8151;47.824;12.092;2023-08-24T04:54:09;9.47;;;6.30;;
16093;SDS011;8151;47.824;12.092;2023-08-24T04:56:38;7.27;;;6.33;;
16093;SDS011;8151;47.824;12.092;2023-08-24T04:59:06;7.70;;;6.10;;
16093;SDS011;8151;47.824;12.092;2023-08-24T05:01:35;12.27;;;6.77;;
16093;SDS011;8151;47.824;12.092;2023-08-24T05:04:04;6.50;;;5.90;;
16093;SDS011;8151;47.824;12.092;2023-08-24T05:06:35;6.88;;;6.00;;
16093;SDS011;8151;47.824;12.092;2023-08-24T05:09:03;6.60;;;6.00;;
16093;SDS011;8151;47.824;12.092;2023-08-24T05:11:31;9.45;;;6.43;;
16093;SDS011;8151;47.824;12.092;2023-08-24T05:14:00;7.65;;;5.68;;
16093;SDS011;8151;47.824;12.092;2023-08-24T05:16:28;7.50;;;6.10;;
16093;SDS011;8151;47.824;12.092;2023-08-24T05:18:57;10.57;;;6.20;;
16093;SDS011;8151;47.824;12.092;2023-08-24T05:21:25;9.60;;;6.37;;
16093;SDS011;8151;47.824;12.092;2023-08-24T05:23:55;6.30;;;5.57;;
16093;SDS011;8151;47.824;12.092;2023-08-24T05:26:23;9.87;;;6.27;;
16093;SDS011;8151;47.824;12.092;2023-08-24T05:28:52;8.77;;;6.80;;
16093;SDS011;8151;47.824;12.092;2023-08-24T05:31:21;9.43;;;6.68;;
16093;SDS011;8151;47.824;12.092;2023-08-24T05:33:49;8.77;;;6.30;;
16093;SDS011;8151;47.824;12.092;2023-08-24T05:36:18;7.28;;;6.00;;
16093;SDS011;8151;47.824;12.092;2023-08-24T05:38:46;7.93;;;6.15;;
16093;SDS011;8151;47.824;12.092;2023-08-24T05:41:33;7.20;;;6.20;;
16093;SDS011;8151;47.824;12.092;2023-08-24T05:44:03;6.38;;;5.75;;
16093;SDS011;8151;47.824;12.092;2023-08-24T05:46:32;16.73;;;5.97;;
16093;SDS011;8151;47.824;12.092;2023-08-24T05:49:00;7.05;;;6.30;;
16093;SDS011;8151;47.824;12.092;2023-08-24T05:51:29;7.40;;;5.82;;
16093;SDS011;8151;47.824;12.092;2023-08-24T05:53:57;8.68;;;6.07;;
16093;SDS011;8151;47.824;12.092;2023-08-24T05:56:25;6.53;;;5.75;;
16093;SDS011;8151;47.824;12.092;2023-08-24T05:58:56;8.65;;;6.05;;
16093;SDS011;8151;47.824;12.092;2023-08-24T06:01:25;8.05;;;6.38;;
16093;SDS011;8151;47.824;12.092;2023-08-24T06:03:54;8.40;;;6.57;;
16093;SDS011;8151;47.824;12.092;2023-08-24T06:06:22;8.88;;;6.38;;
16093;SDS011;8151;47.824;12.092;2023-08-24T06:08:51;8.02;;;6.82;;
16093;SDS011;8151;47.824;12.092;2023-08-24T06:11:19;9.60;;;6.60;;
16093;SDS011;8151;47.824;12.092;2023-08-24T06:13:48;8.73;;;6.50;;
16093;SDS011;8151;47.824;12.092;2023-08-24T06:16:17;9.80;;;6.68;;
16093;SDS011;8151;47.824;12.092;2023-08-24T06:18:46;7.45;;;6.70;;
16093;SDS011;8151;47.824;12.092;2023-08-24T06:21:16;10.00;;;7.10;;
16093;SDS011;8151;47.824;12.092;2023-08-24T06:23:45;12.00;;;7.80;;
16093;SDS011;8151;47.824;12.092;2023-08-24T06:26:14;8.30;;;6.40;;
16093;SDS011;8151;47.824;12.092;2023-08-24T06:28:42;7.68;;;6.40;;
16093;SDS011;8151;47.824;12.092;2023-08-24T06:31:11;9.05;;;7.22;;
16093;SDS011;8151;47.824;12.092;2023-08-24T06:33:40;10.88;;;7.10;;
16093;SDS011;8151;47.824;12.092;2023-08-24T06:36:09;9.57;;;7.13;;
16093;SDS011;8151;47.824;12.092;2023-08-24T06:38:39;11.55;;;7.07;;
16093;SDS011;8151;47.824;12.092;2023-08-24T06:41:07;6.93;;;6.22;;
16093;SDS011;8151;47.824;12.092;2023-08-24T06:43:39;9.55;;;6.95;;
16093;SDS011;8151;47.824;12.092;2023-08-24T06:46:07;9.52;;;6.82;;
16093;SDS011;8151;47.824;12.092;2023-08-24T06:48:36;8.25;;;6.43;;
16093;SDS011;8151;47.824;12.092;2023-08-24T06:51:06;11.70;;;6.40;;
16093;SDS011;8151;47.824;12.092;2023-08-24T06:53:35;6.47;;;5.80;;
16093;SDS011;8151;47.824;12.092;2023-08-24T06:56:03;10.35;;;6.88;;
16093;SDS011;8151;47.824;12.092;2023-08-24T06:58:32;8.98;;;6.90;;
16093;SDS011;8151;47.824;12.092;2023-08-24T07:01:00;7.90;;;7.05;;
16093;SDS011;8151;47.824;12.092;2023-08-24T07:03:33;8.30;;;6.45;;
16093;SDS011;8151;47.824;12.092;2023-08-24T07:06:01;9.18;;;6.50;;
16093;SDS011;8151;47.824;12.092;2023-08-24T07:08:32;7.53;;;6.80;;
16093;SDS011;8151;47.824;12.092;2023-08-24T07:11:04;8.48;;;7.53;;
16093;SDS011;8151;47.824;12.092;2023-08-24T07:13:32;10.70;;;6.70;;
16093;SDS011;8151;47.824;12.092;2023-08-24T07:16:01;12.98;;;7.70;;
16093;SDS011;8151;47.824;12.092;2023-08-24T07:18:31;10.77;;;7.20;;
16093;SDS011;8151;47.824;12.092;2023-08-24T07:20:59;11.25;;;7.57;;
16093;SDS011;8151;47.824;12.092;2023-08-24T07:23:28;10.23;;;7.63;;
16093;SDS011;8151;47.824;12.092;2023-08-24T07:25:59;12.43;;;7.60;;
16093;SDS011;8151;47.824;12.092;2023-08-24T07:28:28;9.43;;;6.40;;
16093;SDS011;8151;47.824;12.092;2023-08-24T07:30:56;9.95;;;7.15;;
16093;SDS011;8151;47.824;12.092;2023-08-24T07:33:25;9.35;;;7.10;;
16093;SDS011;8151;47.824;12.092;2023-08-24T07:35:55;9.70;;;7.63;;
16093;SDS011;8151;47.824;12.092;2023-08-24T07:38:24;12.88;;;7.75;;
16093;SDS011;8151;47.824;12.092;2023-08-24T07:40:53;11.15;;;7.20;;
16093;SDS011;8151;47.824;12.092;2023-08-24T07:43:22;12.95;;;7.10;;
16093;SDS011;8151;47.824;12.092;2023-08-24T07:45:51;11.30;;;8.40;;
16093;SDS011;8151;47.824;12.092;2023-08-24T07:48:20;10.88;;;7.55;;
16093;SDS011;8151;47.824;12.092;2023-08-24T07:50:48;8.40;;;6.60;;
16093;SDS011;8151;47.824;12.092;2023-08-24T07:53:17;10.63;;;7.05;;
16093;SDS011;8151;47.824;12.092;2023-08-24T07:55:45;8.98;;;7.15;;
16093;SDS011;8151;47.824;12.092;2023-08-24T07:58:14;9.43;;;7.38;;
16093;SDS011;8151;47.824;12.092;2023-08-24T08:00:44;10.38;;;6.47;;
16093;SDS011;8151;47.824;12.092;2023-08-24T08:03:12;12.15;;;7.43;;
16093;SDS011;8151;47.824;12.092;2023-08-24T08:05:41;10.55;;;6.38;;
16093;SDS011;8151;47.824;12.092;2023-08-24T08:08:09;7.97;;;7.05;;
16093;SDS011;8151;47.824;12.092;2023-08-24T08:10:38;10.52;;;7.43;;
16093;SDS011;8151;47.824;12.092;2023-08-24T08:13:06;11.98;;;7.38;;
16093;SDS011;8151;47.824;12.092;2023-08-24T08:15:35;7.95;;;6.68;;
16093;SDS011;8151;47.824;12.092;2023-08-24T08:18:06;8.60;;;6.82;;
16093;SDS011;8151;47.824;12.092;2023-08-24T08:20:35;7.68;;;6.57;;
16093;SDS011;8151;47.824;12.092;2023-08-24T08:23:03;7.80;;;7.00;;
16093;SDS011;8151;47.824;12.092;2023-08-24T08:25:31;13.38;;;7.18;;
16093;SDS011;8151;47.824;12.092;2023-08-24T08:28:01;14.13;;;6.65;;
16093;SDS011;8151;47.824;12.092;2023-08-24T08:30:29;8.60;;;6.63;;
16093;SDS011;8151;47.824;12.092;2023-08-24T08:32:58;10.30;;;7.25;;
16093;SDS011;8151;47.824;12.092;2023-08-24T08:35:29;7.60;;;5.90;;
16093;SDS011;8151;47.824;12.092;2023-08-24T08:37:58;8.07;;;6.40;;
16093;SDS011;8151;47.824;12.092;2023-08-24T08:40:26;9.10;;;6.70;;
16093;SDS011;8151;47.824;12.092;2023-08-24T08:43:05;8.68;;;6.90;;
16093;SDS011;8151;47.824;12.092;2023-08-24T08:45:33;14.82;;;6.70;;
16093;SDS011;8151;47.824;12.092;2023-08-24T08:48:02;17.50;;;8.32;;
16093;SDS011;8151;47.824;12.092;2023-08-24T08:50:33;10.82;;;8.18;;
16093;SDS011;8151;47.824;12.092;2023-08-24T08:53:02;10.15;;;7.25;;
16093;SDS011;8151;47.824;12.092;2023-08-24T08:55:31;7.88;;;6.45;;
16093;SDS011;8151;47.824;12.092;2023-08-24T08:58:00;9.00;;;6.32;;
16093;SDS011;8151;47.824;12.092;2023-08-24T09:00:31;7.22;;;6.28;;
16093;SDS011;8151;47.824;12.092;2023-08-24T09:03:00;10.68;;;7.00;;
16093;SDS011;8151;47.824;12.092;2023-08-24T09:05:30;10.05;;;6.75;;
16093;SDS011;8151;47.824;12.092;2023-08-24T09:08:00;10.45;;;6.53;;
16093;SDS011;8151;47.824;12.092;2023-08-24T09:10:30;8.85;;;6.43;;
16093;SDS011;8151;47.824;12.092;2023-08-24T09:12:58;33.75;;;11.23;;
16093;SDS011;8151;47.824;12.092;2023-08-24T09:15:27;9.60;;;6.93;;
16093;SDS011;8151;47.824;12.092;2023-08-24T09:17:59;8.98;;;6.25;;
16093;SDS011;8151;47.824;12.092;2023-08-24T09:20:28;10.30;;;5.88;;
16093;SDS011;8151;47.824;12.092;2023-08-24T09:22:57;8.95;;;6.25;;
16093;SDS011;8151;47.824;12.092;2023-08-24T09:25:27;8.82;;;6.70;;
16093;SDS011;8151;47.824;12.092;2023-08-24T09:27:56;6.45;;;5.72;;
16093;SDS011;8151;47.824;12.092;2023-08-24T09:30:28;14.23;;;6.90;;
16093;SDS011;8151;47.824;12.092;2023-08-24T09:33:01;7.53;;;6.80;;
16093;SDS011;8151;47.824;12.092;2023-08-24T09:35:34;9.13;;;6.65;;
16093;SDS011;8151;47.824;12.092;2023-08-24T09:38:15;9.82;;;6.50;;
16093;SDS011;8151;47.824;12.092;2023-08-24T09:40:46;8.80;;;6.50;;
16093;SDS011;8151;47.824;12.092;2023-08-24T09:43:18;11.25;;;7.35;;
16093;SDS011;8151;47.824;12.092;2023-08-24T09:45:48;8.18;;;6.30;;
16093;SDS011;8151;47.824;12.092;2023-08-24T09:48:17;10.60;;;6.20;;
16093;SDS011;8151;47.824;12.092;2023-08-24T09:50:47;7.43;;;6.80;;
16093;SDS011;8151;47.824;12.092;2023-08-24T09:53:17;12.55;;;6.90;;
16093;SDS011;8151;47.824;12.092;2023-08-24T09:55:54;8.65;;;6.45;;
16093;SDS011;8151;47.824;12.092;2023-08-24T09:58:27;8.75;;;6.70;;
16093;SDS011;8151;47.824;12.092;2023-08-24T10:00:56;10.90;;;6.70;;
16093;SDS011;8151;47.824;12.092;2023-08-24T10:03:25;11.20;;;6.05;;
16093;SDS011;8151;47.824;12.092;2023-08-24T10:05:54;6.97;;;6.13;;
16093;SDS011;8151;47.824;12.092;2023-08-24T10:08:34;11.52;;;6.35;;
16093;SDS011;8151;47.824;12.092;2023-08-24T10:11:06;8.80;;;6.25;;
16093;SDS011;8151;47.824;12.092;2023-08-24T10:13:43;11.43;;;6.40;;
16093;SDS011;8151;47.824;12.092;2023-08-24T10:16:18;11.73;;;8.85;;
16093;SDS011;8151;47.824;12.092;2023-08-24T10:18:49;10.82;;;6.60;;
16093;SDS011;8151;47.824;12.092;2023-08-24T10:21:19;10.15;;;7.75;;
16093;SDS011;8151;47.824;12.092;2023-08-24T10:23:52;10.68;;;9.23;;
16093;SDS011;8151;47.824;12.092;2023-08-24T10:26:23;12.10;;;7.32;;
16093;SDS011;8151;47.824;12.092;2023-08-24T10:28:55;12.02;;;8.55;;
16093;SDS011;8151;47.824;12.092;2023-08-24T10:31:26;8.38;;;6.40;;
16093;SDS011;8151;47.824;12.092;2023-08-24T10:33:55;9.48;;;6.60;;
16093;SDS011;8151;47.824;12.092;2023-08-24T10:36:24;8.52;;;6.13;;
16093;SDS011;8151;47.824;12.092;2023-08-24T10:38:55;9.43;;;6.30;;
16093;SDS011;8151;47.824;12.092;2023-08-24T10:41:27;11.35;;;5.78;;
16093;SDS011;8151;47.824;12.092;2023-08-24T10:44:04;8.57;;;5.05;;
16093;SDS011;8151;47.824;12.092;2023-08-24T10:46:34;6.95;;;4.85;;
16093;SDS011;8151;47.824;12.092;2023-08-24T10:49:04;10.68;;;5.47;;
16093;SDS011;8151;47.824;12.092;2023-08-24T10:51:34;8.23;;;5.07;;
16093;SDS011;8151;47.824;12.092;2023-08-24T10:54:13;6.82;;;5.28;;
16093;SDS011;8151;47.824;12.092;2023-08-24T10:56:51;9.18;;;5.47;;
16093;SDS011;8151;47.824;12.092;2023-08-24T10:59:21;7.07;;;6.07;;
16093;SDS011;8151;47.824;12.092;2023-08-24T11:01:56;8.55;;;5.90;;
16093;SDS011;8151;47.824;12.092;2023-08-24T11:04:25;9.07;;;5.45;;
16093;SDS011;8151;47.824;12.092;2023-08-24T11:06:54;6.75;;;5.20;;
16093;SDS011;8151;47.824;12.092;2023-08-24T11:09:24;13.90;;;7.00;;
16093;SDS011;8151;47.824;12.092;2023-08-24T11:11:56;12.60;;;6.70;;
16093;SDS011;8151;47.824;12.092;2023-08-24T11:14:25;9.00;;;5.28;;
16093;SDS011;8151;47.824;12.092;2023-08-24T11:16:57;7.63;;;5.22;;
16093;SDS011;8151;47.824;12.092;2023-08-24T11:19:27;8.73;;;5.47;;
16093;SDS011;8151;47.824;12.092;2023-08-24T11:21:57;8.02;;;6.45;;
16093;SDS011;8151;47.824;12.092;2023-08-24T11:24:27;6.45;;;5.03;;
16093;SDS011;8151;47.824;12.092;2023-08-24T11:26:57;7.60;;;5.25;;
16093;SDS011;8151;47.824;12.092;2023-08-24T11:29:29;11.30;;;5.45;;
16093;SDS011;8151;47.824;12.092;2023-08-24T11:31:57;8.55;;;6.20;;
16093;SDS011;8151;47.824;12.092;2023-08-24T11:34:27;7.47;;;5.40;;
16093;SDS011;8151;47.824;12.092;2023-08-24T11:36:55;8.90;;;5.60;;
16093;SDS011;8151;47.824;12.092;2023-08-24T11:39:24;6.55;;;5.10;;
16093;SDS011;8151;47.824;12.092;2023-08-24T11:42:00;8.50;;;5.05;;
16093;SDS011;8151;47.824;12.092;2023-08-24T11:44:30;6.85;;;5.32;;
16093;SDS011;8151;47.824;12.092;2023-08-24T11:47:12;7.43;;;5.43;;
16093;SDS011;8151;47.824;12.092;2023-08-24T11:49:41;8.15;;;5.10;;
16093;SDS011;8151;47.824;12.092;2023-08-24T11:52:10;11.65;;;5.10;;
16093;SDS011;8151;47.824;12.092;2023-08-24T11:54:38;6.90;;;4.90;;
16093;SDS011;8151;47.824;12.092;2023-08-24T11:57:20;7.43;;;4.68;;
16093;SDS011;8151;47.824;12.092;2023-08-24T11:59:48;8.13;;;4.97;;
16093;SDS011;8151;47.824;12.092;2023-08-24T12:02:17;5.65;;;4.68;;
16093;SDS011;8151;47.824;12.092;2023-08-24T12:04:45;7.57;;;4.95;;
16093;SDS011;8151;47.824;12.092;2023-08-24T12:07:16;5.38;;;4.80;;
16093;SDS011;8151;47.824;12.092;2023-08-24T12:09:45;7.28;;;4.97;;
16093;SDS011;8151;47.824;12.092;2023-08-24T12:12:20;5.15;;;4.57;;
16093;SDS011;8151;47.824;12.092;2023-08-24T12:14:50;6.47;;;4.75;;
16093;SDS011;8151;47.824;12.092;2023-08-24T12:17:19;9.13;;;5.22;;
16093;SDS011;8151;47.824;12.092;2023-08-24T12:19:56;5.95;;;5.05;;
16093;SDS011;8151;47.824;12.092;2023-08-24T12:22:27;5.35;;;4.65;;
16093;SDS011;8151;47.824;12.092;2023-08-24T12:24:57;11.98;;;5.22;;
16093;SDS011;8151;47.824;12.092;2023-08-24T12:27:27;6.40;;;5.07;;
16093;SDS011;8151;47.824;12.092;2023-08-24T12:29:59;8.18;;;5.10;;
16093;SDS011;8151;47.824;12.092;2023-08-24T12:32:41;8.13;;;5.20;;
16093;SDS011;8151;47.824;12.092;2023-08-24T12:35:10;7.55;;;5.25;;
16093;SDS011;8151;47.824;12.092;2023-08-24T12:37:38;6.53;;;5.63;;
16093;SDS011;8151;47.824;12.092;2023-08-24T12:40:07;6.93;;;5.00;;
16093;SDS011;8151;47.824;12.092;2023-08-24T12:42:37;7.25;;;5.25;;
16093;SDS011;8151;47.824;12.092;2023-08-24T12:45:06;5.22;;;4.78;;
16093;SDS011;8151;47.824;12.092;2023-08-24T12:47:36;5.35;;;4.70;;
16093;SDS011;8151;47.824;12.092;2023-08-24T12:50:06;8.85;;;5.57;;
16093;SDS011;8151;47.824;12.092;2023-08-24T12:52:35;6.22;;;4.80;;
16093;SDS011;8151;47.824;12.092;2023-08-24T12:55:03;5.93;;;4.63;;
16093;SDS011;8151;47.824;12.092;2023-08-24T12:57:32;7.47;;;5.32;;
16093;SDS011;8151;47.824;12.092;2023-08-24T13:00:02;7.35;;;5.50;;
16093;SDS011;8151;47.824;12.092;2023-08-24T13:02:33;7.22;;;5.22;;
16093;SDS011;8151;47.824;12.092;2023-08-24T13:05:05;10.63;;;4.85;;
16093;SDS011;8151;47.824;12.092;2023-08-24T13:07:35;7.95;;;5.00;;
16093;SDS011;8151;47.824;12.092;2023-08-24T13:10:04;9.10;;;5.13;;
16093;SDS011;8151;47.824;12.092;2023-08-24T13:12:43;6.70;;;5.18;;
16093;SDS011;8151;47.824;12.092;2023-08-24T13:15:13;7.35;;;4.88;;
16093;SDS011;8151;47.824;12.092;2023-08-24T13:17:42;7.28;;;5.82;;
16093;SDS011;8151;47.824;12.092;2023-08-24T13:20:10;6.50;;;4.82;;
16093;SDS011;8151;47.824;12.092;2023-08-24T13:22:39;10.13;;;4.80;;
16093;SDS011;8151;47.824;12.092;2023-08-24T13:25:08;7.28;;;4.93;;
16093;SDS011;8151;47.824;12.092;2023-08-24T13:27:39;7.45;;;4.70;;
16093;SDS011;8151;47.824;12.092;2023-08-24T13:30:08;6.97;;;5.28;;
16093;SDS011;8151;47.824;12.092;2023-08-24T13:32:38;6.68;;;4.60;;
16093;SDS011;8151;47.824;12.092;2023-08-24T13:35:07;7.82;;;4.53;;
16093;SDS011;8151;47.824;12.092;2023-08-24T13:37:36;9.20;;;4.90;;
16093;SDS011;8151;47.824;12.092;2023-08-24T13:40:05;9.75;;;4.65;;
16093;SDS011;8151;47.824;12.092;2023-08-24T13:42:34;17.80;;;5.10;;
16093;SDS011;8151;47.824;12.092;2023-08-24T13:45:03;10.23;;;8.02;;
16093;SDS011;8151;47.824;12.092;2023-08-24T13:47:32;10.07;;;4.68;;
16093;SDS011;8151;47.824;12.092;2023-08-24T13:50:02;8.70;;;4.00;;
16093;SDS011;8151;47.824;12.092;2023-08-24T13:52:31;7.55;;;4.85;;
16093;SDS011;8151;47.824;12.092;2023-08-24T13:55:00;6.93;;;4.35;;
16093;SDS011;8151;47.824;12.092;2023-08-24T13:57:39;9.93;;;4.40;;
16093;SDS011;8151;47.824;12.092;2023-08-24T14:00:08;5.28;;;4.15;;
16093;SDS011;8151;47.824;12.092;2023-08-24T14:02:38;8.48;;;4.70;;
16093;SDS011;8151;47.824;12.092;2023-08-24T14:05:08;4.70;;;4.30;;
16093;SDS011;8151;47.824;12.092;2023-08-24T14:07:38;5.72;;;4.22;;
16093;SDS011;8151;47.824;12.092;2023-08-24T14:10:06;6.45;;;4.60;;
16093;SDS011;8151;47.824;12.092;2023-08-24T14:12:35;8.15;;;4.72;;
16093;SDS011;8151;47.824;12.092;2023-08-24T14:15:04;7.40;;;4.30;;
16093;SDS011;8151;47.824;12.092;2023-08-24T14:17:34;9.65;;;4.65;;
16093;SDS011;8151;47.824;12.092;2023-08-24T14:20:03;6.00;;;4.25;;
16093;SDS011;8151;47.824;12.092;2023-08-24T14:22:33;6.28;;;4.57;;
16093;SDS011;8151;47.824;12.092;2023-08-24T14:25:02;7.43;;;4.88;;
16093;SDS011;8151;47.824;12.092;2023-08-24T14:27:30;10.75;;;4.80;;
16093;SDS011;8151;47.824;12.092;2023-08-24T14:29:59;9.52;;;4.40;;
16093;SDS011;8151;47.824;12.092;2023-08-24T14:32:27;5.60;;;5.00;;
16093;SDS011;8151;47.824;12.092;2023-08-24T14:34:56;6.50;;;5.05;;
16093;SDS011;8151;47.824;12.092;2023-08-24T14:37:24;12.07;;;4.85;;
16093;SDS011;8151;47.824;12.092;2023-08-24T14:39:54;12.63;;;7.40;;
16093;SDS011;8151;47.824;12.092;2023-08-24T14:42:26;4.65;;;4.18;;
16093;SDS011;8151;47.824;12.092;2023-08-24T14:44:55;11.77;;;9.50;;
16093;SDS011;8151;47.824;12.092;2023-08-24T14:47:24;9.18;;;7.38;;
16093;SDS011;8151;47.824;12.092;2023-08-24T14:49:53;9.50;;;6.03;;
16093;SDS011;8151;47.824;12.092;2023-08-24T14:52:21;7.57;;;4.80;;
16093;SDS011;8151;47.824;12.092;2023-08-24T14:54:50;5.22;;;4.53;;
16093;SDS011;8151;47.824;12.092;2023-08-24T14:57:20;8.48;;;5.35;;
16093;SDS011;8151;47.824;12.092;2023-08-24T14:59:48;5.53;;;4.82;;